sensor_id;sensor_type;location;lat;lon;timestamp;temperature;humidity
45435;DHT22;31183;47.404;8.500;2023-03-14T00:00:10;12.20;99.90
45435;DHT22;31183;47.404;8.500;2023-03-14T00:02:37;12.30;99.90
45435;DHT22;31183;47.404;8.500;2023-03-14T00:05:05;12.30;99.90
45435;DHT22;31183;47.404;8.500;2023-03-14T00:07:35;12.30;99.90
45435;DHT22;31183;47.404;8.500;2023-03-14T00:10:04;12.30;99.90
45435;DHT22;31183;47.404;8.500;2023-03-14T00:12:31;12.30;99.90
45435;DHT22;31183;47.404;8.500;2023-03-14T00:14:58;12.20;99.90
45435;DHT22;31183;47.404;8.500;2023-03-14T00:17:27;12.00;99.90
45435;DHT22;31183;47.404;8.500;2023-03-14T00:19:53;11.80;99.90
45435;DHT22;31183;47.404;8.500;2023-03-14T00:22:21;11.60;99.90
45435;DHT22;31183;47.404;8.500;2023-03-14T00:24:47;11.40;99.90
45435;DHT22;31183;47.404;8.500;2023-03-14T00:27:14;11.30;99.90
45435;DHT22;31183;47.404;8.500;2023-03-14T00:29:42;11.00;99.90
45435;DHT22;31183;47.404;8.500;2023-03-14T00:32:09;10.90;99.90
45435;DHT22;31183;47.404;8.500;2023-03-14T00:34:35;10.70;99.90
45435;DHT22;31183;47.404;8.500;2023-03-14T00:37:02;10.60;99.90
45435;DHT22;31183;47.404;8.500;2023-03-14T00:39:28;10.60;99.90
45435;DHT22;31183;47.404;8.500;2023-03-14T00:41:55;10.60;99.90
45435;DHT22;31183;47.404;8.500;2023-03-14T00:44:22;10.50;99.90
45435;DHT22;31183;47.404;8.500;2023-03-14T00:46:48;10.50;99.90
45435;DHT22;31183;47.404;8.500;2023-03-14T00:49:15;10.40;99.90
45435;DHT22;31183;47.404;8.500;2023-03-14T00:51:42;10.30;99.90
45435;DHT22;31183;47.404;8.500;2023-03-14T00:54:08;10.30;99.90
45435;DHT22;31183;47.404;8.500;2023-03-14T00:56:35;10.20;99.90
45435;DHT22;31183;47.404;8.500;2023-03-14T00:59:01;10.10;99.90
45435;DHT22;31183;47.404;8.500;2023-03-14T01:01:28;10.00;99.90
45435;DHT22;31183;47.404;8.500;2023-03-14T01:03:55;10.10;99.90
45435;DHT22;31183;47.404;8.500;2023-03-14T01:06:24;10.10;99.90
45435;DHT22;31183;47.404;8.500;2023-03-14T01:08:52;10.10;99.90
45435;DHT22;31183;47.404;8.500;2023-03-14T01:11:26;10.00;99.90
45435;DHT22;31183;47.404;8.500;2023-03-14T01:13:53;10.00;99.90
45435;DHT22;31183;47.404;8.500;2023-03-14T01:16:21;9.90;99.90
45435;DHT22;31183;47.404;8.500;2023-03-14T01:18:49;9.90;99.90
45435;DHT22;31183;47.404;8.500;2023-03-14T01:23:53;9.80;99.90
45435;DHT22;31183;47.404;8.500;2023-03-14T01:26:22;9.80;99.90
45435;DHT22;31183;47.404;8.500;2023-03-14T01:28:50;9.80;99.90
45435;DHT22;31183;47.404;8.500;2023-03-14T01:31:18;9.80;99.90
45435;DHT22;31183;47.404;8.500;2023-03-14T01:33:45;9.80;99.90
45435;DHT22;31183;47.404;8.500;2023-03-14T01:36:12;9.80;99.90
45435;DHT22;31183;47.404;8.500;2023-03-14T01:38:39;9.80;99.90
45435;DHT22;31183;47.404;8.500;2023-03-14T01:41:08;9.80;99.90
45435;DHT22;31183;47.404;8.500;2023-03-14T01:43:38;9.80;99.90
45435;DHT22;31183;47.404;8.500;2023-03-14T01:48:36;9.90;99.90
45435;DHT22;31183;47.404;8.500;2023-03-14T01:51:11;9.80;99.90
45435;DHT22;31183;47.404;8.500;2023-03-14T01:53:40;9.80;99.90
45435;DHT22;31183;47.404;8.500;2023-03-14T01:56:10;9.70;99.90
45435;DHT22;31183;47.404;8.500;2023-03-14T01:58:38;9.70;99.90
45435;DHT22;31183;47.404;8.500;2023-03-14T02:01:07;9.70;99.80
45435;DHT22;31183;47.404;8.500;2023-03-14T02:03:46;9.70;99.90
45435;DHT22;31183;47.404;8.500;2023-03-14T02:06:14;9.60;99.90
45435;DHT22;31183;47.404;8.500;2023-03-14T02:08:43;9.70;99.80
45435;DHT22;31183;47.404;8.500;2023-03-14T02:11:15;9.70;99.90
45435;DHT22;31183;47.404;8.500;2023-03-14T02:13:42;9.60;99.80
45435;DHT22;31183;47.404;8.500;2023-03-14T02:16:09;9.70;99.90
45435;DHT22;31183;47.404;8.500;2023-03-14T02:18:36;9.70;99.90
45435;DHT22;31183;47.404;8.500;2023-03-14T02:21:23;9.60;99.50
45435;DHT22;31183;47.404;8.500;2023-03-14T02:24:12;9.60;99.30
45435;DHT22;31183;47.404;8.500;2023-03-14T02:27:12;9.60;99.30
45435;DHT22;31183;47.404;8.500;2023-03-14T02:29:49;9.60;99.60
45435;DHT22;31183;47.404;8.500;2023-03-14T02:32:18;9.60;99.60
45435;DHT22;31183;47.404;8.500;2023-03-14T02:34:49;9.70;99.60
45435;DHT22;31183;47.404;8.500;2023-03-14T02:37:17;9.70;99.30
45435;DHT22;31183;47.404;8.500;2023-03-14T02:39:45;9.70;99.30
45435;DHT22;31183;47.404;8.500;2023-03-14T02:42:13;9.60;99.20
45435;DHT22;31183;47.404;8.500;2023-03-14T02:44:54;9.60;99.20
45435;DHT22;31183;47.404;8.500;2023-03-14T02:47:27;9.60;98.70
45435;DHT22;31183;47.404;8.500;2023-03-14T02:50:00;9.60;99.40
45435;DHT22;31183;47.404;8.500;2023-03-14T02:52:27;9.60;99.20
45435;DHT22;31183;47.404;8.500;2023-03-14T02:54:54;9.60;99.30
45435;DHT22;31183;47.404;8.500;2023-03-14T02:57:21;9.60;99.40
45435;DHT22;31183;47.404;8.500;2023-03-14T02:59:47;9.50;99.30
45435;DHT22;31183;47.404;8.500;2023-03-14T03:02:14;9.50;99.40
45435;DHT22;31183;47.404;8.500;2023-03-14T03:04:40;9.50;99.70
45435;DHT22;31183;47.404;8.500;2023-03-14T03:07:07;9.50;99.70
45435;DHT22;31183;47.404;8.500;2023-03-14T03:09:34;9.50;99.70
45435;DHT22;31183;47.404;8.500;2023-03-14T03:12:01;9.50;99.80
45435;DHT22;31183;47.404;8.500;2023-03-14T03:14:27;9.50;99.90
45435;DHT22;31183;47.404;8.500;2023-03-14T03:16:54;9.40;99.90
45435;DHT22;31183;47.404;8.500;2023-03-14T03:19:20;9.40;99.90
45435;DHT22;31183;47.404;8.500;2023-03-14T03:21:47;9.40;99.90
45435;DHT22;31183;47.404;8.500;2023-03-14T03:24:14;9.40;99.90
45435;DHT22;31183;47.404;8.500;2023-03-14T03:26:41;9.40;99.90
45435;DHT22;31183;47.404;8.500;2023-03-14T03:29:07;9.40;99.90
45435;DHT22;31183;47.404;8.500;2023-03-14T03:31:37;9.40;99.90
45435;DHT22;31183;47.404;8.500;2023-03-14T03:34:04;9.40;99.90
45435;DHT22;31183;47.404;8.500;2023-03-14T03:36:30;9.40;99.90
45435;DHT22;31183;47.404;8.500;2023-03-14T03:38:57;9.40;99.90
45435;DHT22;31183;47.404;8.500;2023-03-14T03:41:23;9.40;99.90
45435;DHT22;31183;47.404;8.500;2023-03-14T03:43:50;9.40;99.90
45435;DHT22;31183;47.404;8.500;2023-03-14T03:46:17;9.40;99.90
45435;DHT22;31183;47.404;8.500;2023-03-14T03:48:43;9.40;99.90
45435;DHT22;31183;47.404;8.500;2023-03-14T03:51:14;9.40;99.90
45435;DHT22;31183;47.404;8.500;2023-03-14T03:53:42;9.40;99.90
45435;DHT22;31183;47.404;8.500;2023-03-14T03:56:09;9.40;99.90
45435;DHT22;31183;47.404;8.500;2023-03-14T03:58:36;9.30;99.90
45435;DHT22;31183;47.404;8.500;2023-03-14T04:01:05;9.30;99.90
45435;DHT22;31183;47.404;8.500;2023-03-14T04:03:33;9.40;99.90
45435;DHT22;31183;47.404;8.500;2023-03-14T04:06:02;9.40;99.90
45435;DHT22;31183;47.404;8.500;2023-03-14T04:08:29;9.30;99.80
45435;DHT22;31183;47.404;8.500;2023-03-14T04:11:00;9.40;99.90
45435;DHT22;31183;47.404;8.500;2023-03-14T04:13:28;9.30;99.90
45435;DHT22;31183;47.404;8.500;2023-03-14T04:15:55;9.30;99.80
45435;DHT22;31183;47.404;8.500;2023-03-14T04:18:22;9.30;99.50
45435;DHT22;31183;47.404;8.500;2023-03-14T04:20:52;9.20;99.20
45435;DHT22;31183;47.404;8.500;2023-03-14T04:23:19;9.20;98.90
45435;DHT22;31183;47.404;8.500;2023-03-14T04:25:46;9.30;98.70
45435;DHT22;31183;47.404;8.500;2023-03-14T04:28:12;9.30;98.60
45435;DHT22;31183;47.404;8.500;2023-03-14T04:30:39;9.30;98.70
45435;DHT22;31183;47.404;8.500;2023-03-14T04:33:05;9.30;98.50
45435;DHT22;31183;47.404;8.500;2023-03-14T04:35:33;9.30;98.50
45435;DHT22;31183;47.404;8.500;2023-03-14T04:38:00;9.30;98.50
45435;DHT22;31183;47.404;8.500;2023-03-14T04:40:27;9.30;98.60
45435;DHT22;31183;47.404;8.500;2023-03-14T04:42:53;9.30;98.50
45435;DHT22;31183;47.404;8.500;2023-03-14T04:45:20;9.30;98.60
45435;DHT22;31183;47.404;8.500;2023-03-14T04:47:47;9.30;98.60
45435;DHT22;31183;47.404;8.500;2023-03-14T04:50:13;9.30;98.70
45435;DHT22;31183;47.404;8.500;2023-03-14T04:52:40;9.30;98.70
45435;DHT22;31183;47.404;8.500;2023-03-14T04:55:06;9.30;98.70
45435;DHT22;31183;47.404;8.500;2023-03-14T04:57:33;9.30;98.80
45435;DHT22;31183;47.404;8.500;2023-03-14T05:00:00;9.30;98.80
45435;DHT22;31183;47.404;8.500;2023-03-14T05:02:26;9.30;98.90
45435;DHT22;31183;47.404;8.500;2023-03-14T05:04:53;9.30;98.50
45435;DHT22;31183;47.404;8.500;2023-03-14T05:07:19;9.30;98.50
45435;DHT22;31183;47.404;8.500;2023-03-14T05:09:46;9.40;98.20
45435;DHT22;31183;47.404;8.500;2023-03-14T05:12:13;9.40;98.40
45435;DHT22;31183;47.404;8.500;2023-03-14T05:14:39;9.30;98.20
45435;DHT22;31183;47.404;8.500;2023-03-14T05:17:06;9.30;98.30
45435;DHT22;31183;47.404;8.500;2023-03-14T05:19:32;9.30;98.20
45435;DHT22;31183;47.404;8.500;2023-03-14T05:22:01;9.30;98.20
45435;DHT22;31183;47.404;8.500;2023-03-14T05:24:28;9.30;97.90
45435;DHT22;31183;47.404;8.500;2023-03-14T05:26:55;9.30;97.70
45435;DHT22;31183;47.404;8.500;2023-03-14T05:29:21;9.30;97.80
45435;DHT22;31183;47.404;8.500;2023-03-14T05:31:48;9.20;97.60
45435;DHT22;31183;47.404;8.500;2023-03-14T05:34:15;9.20;97.70
45435;DHT22;31183;47.404;8.500;2023-03-14T05:36:41;9.30;97.60
45435;DHT22;31183;47.404;8.500;2023-03-14T05:39:08;9.20;97.50
45435;DHT22;31183;47.404;8.500;2023-03-14T05:41:34;9.20;97.30
45435;DHT22;31183;47.404;8.500;2023-03-14T05:44:02;9.20;97.40
45435;DHT22;31183;47.404;8.500;2023-03-14T05:46:28;9.20;97.30
45435;DHT22;31183;47.404;8.500;2023-03-14T05:48:58;9.30;97.40
45435;DHT22;31183;47.404;8.500;2023-03-14T05:51:25;9.30;97.20
45435;DHT22;31183;47.404;8.500;2023-03-14T05:53:52;9.30;97.00
45435;DHT22;31183;47.404;8.500;2023-03-14T05:56:19;9.30;96.90
45435;DHT22;31183;47.404;8.500;2023-03-14T05:58:45;9.30;96.60
45435;DHT22;31183;47.404;8.500;2023-03-14T06:01:12;9.30;96.60
45435;DHT22;31183;47.404;8.500;2023-03-14T06:03:38;9.30;96.30
45435;DHT22;31183;47.404;8.500;2023-03-14T06:06:05;9.30;96.30
45435;DHT22;31183;47.404;8.500;2023-03-14T06:08:32;9.30;96.20
45435;DHT22;31183;47.404;8.500;2023-03-14T06:11:02;9.30;96.00
45435;DHT22;31183;47.404;8.500;2023-03-14T06:13:29;9.30;96.00
45435;DHT22;31183;47.404;8.500;2023-03-14T06:15:56;9.40;96.00
45435;DHT22;31183;47.404;8.500;2023-03-14T06:18:22;9.30;96.00
45435;DHT22;31183;47.404;8.500;2023-03-14T06:20:49;9.40;96.10
45435;DHT22;31183;47.404;8.500;2023-03-14T06:23:15;9.50;96.20
45435;DHT22;31183;47.404;8.500;2023-03-14T06:25:42;9.50;95.70
45435;DHT22;31183;47.404;8.500;2023-03-14T06:28:08;9.60;95.50
45435;DHT22;31183;47.404;8.500;2023-03-14T06:30:35;9.70;95.30
45435;DHT22;31183;47.404;8.500;2023-03-14T06:33:02;9.70;95.10
45435;DHT22;31183;47.404;8.500;2023-03-14T06:35:29;9.60;95.10
45435;DHT22;31183;47.404;8.500;2023-03-14T06:37:55;9.70;95.00
45435;DHT22;31183;47.404;8.500;2023-03-14T06:40:22;9.70;94.60
45435;DHT22;31183;47.404;8.500;2023-03-14T06:42:49;9.70;94.80
45435;DHT22;31183;47.404;8.500;2023-03-14T06:45:16;9.70;94.80
45435;DHT22;31183;47.404;8.500;2023-03-14T06:47:42;9.60;94.30
45435;DHT22;31183;47.404;8.500;2023-03-14T06:50:10;9.60;94.20
45435;DHT22;31183;47.404;8.500;2023-03-14T06:52:37;9.60;94.30
45435;DHT22;31183;47.404;8.500;2023-03-14T06:55:04;9.60;94.50
45435;DHT22;31183;47.404;8.500;2023-03-14T06:57:31;9.60;94.20
45435;DHT22;31183;47.404;8.500;2023-03-14T06:59:57;9.70;94.20
45435;DHT22;31183;47.404;8.500;2023-03-14T07:02:24;9.70;93.90
45435;DHT22;31183;47.404;8.500;2023-03-14T07:05:07;9.70;93.80
45435;DHT22;31183;47.404;8.500;2023-03-14T07:07:36;9.90;93.70
45435;DHT22;31183;47.404;8.500;2023-03-14T07:10:03;10.10;93.40
45435;DHT22;31183;47.404;8.500;2023-03-14T07:12:30;10.40;93.10
45435;DHT22;31183;47.404;8.500;2023-03-14T07:14:56;10.60;92.60
45435;DHT22;31183;47.404;8.500;2023-03-14T07:17:37;10.80;92.00
45435;DHT22;31183;47.404;8.500;2023-03-14T07:20:04;11.10;91.50
45435;DHT22;31183;47.404;8.500;2023-03-14T07:22:34;11.40;90.80
45435;DHT22;31183;47.404;8.500;2023-03-14T07:25:00;11.50;90.30
45435;DHT22;31183;47.404;8.500;2023-03-14T07:27:27;11.40;90.60
45435;DHT22;31183;47.404;8.500;2023-03-14T07:29:53;11.20;90.40
45435;DHT22;31183;47.404;8.500;2023-03-14T07:32:20;11.00;90.80
45435;DHT22;31183;47.404;8.500;2023-03-14T07:34:47;10.80;91.50
45435;DHT22;31183;47.404;8.500;2023-03-14T07:37:14;10.60;91.50
45435;DHT22;31183;47.404;8.500;2023-03-14T07:39:40;10.40;91.60
45435;DHT22;31183;47.404;8.500;2023-03-14T07:42:07;10.30;91.80
45435;DHT22;31183;47.404;8.500;2023-03-14T07:44:33;10.20;92.10
45435;DHT22;31183;47.404;8.500;2023-03-14T07:47:01;10.10;92.60
45435;DHT22;31183;47.404;8.500;2023-03-14T07:49:28;10.10;92.50
45435;DHT22;31183;47.404;8.500;2023-03-14T07:51:54;10.00;92.50
45435;DHT22;31183;47.404;8.500;2023-03-14T07:54:21;10.00;92.60
45435;DHT22;31183;47.404;8.500;2023-03-14T07:56:48;10.00;92.70
45435;DHT22;31183;47.404;8.500;2023-03-14T07:59:14;10.00;92.80
45435;DHT22;31183;47.404;8.500;2023-03-14T08:01:41;10.00;92.90
45435;DHT22;31183;47.404;8.500;2023-03-14T08:04:08;10.00;92.60
45435;DHT22;31183;47.404;8.500;2023-03-14T08:06:35;10.00;92.50
45435;DHT22;31183;47.404;8.500;2023-03-14T08:09:03;10.00;92.60
45435;DHT22;31183;47.404;8.500;2023-03-14T08:11:30;10.10;92.50
45435;DHT22;31183;47.404;8.500;2023-03-14T08:13:56;10.10;92.30
45435;DHT22;31183;47.404;8.500;2023-03-14T08:16:23;10.20;92.60
45435;DHT22;31183;47.404;8.500;2023-03-14T08:18:50;10.20;92.60
45435;DHT22;31183;47.404;8.500;2023-03-14T08:21:16;10.20;92.40
45435;DHT22;31183;47.404;8.500;2023-03-14T08:23:43;10.20;92.40
45435;DHT22;31183;47.404;8.500;2023-03-14T08:26:09;10.20;92.50
45435;DHT22;31183;47.404;8.500;2023-03-14T08:28:36;10.10;92.70
45435;DHT22;31183;47.404;8.500;2023-03-14T08:31:03;10.10;92.70
45435;DHT22;31183;47.404;8.500;2023-03-14T08:33:30;10.10;93.00
45435;DHT22;31183;47.404;8.500;2023-03-14T08:35:58;10.10;92.90
45435;DHT22;31183;47.404;8.500;2023-03-14T08:38:25;10.10;93.00
45435;DHT22;31183;47.404;8.500;2023-03-14T08:40:59;10.20;93.00
45435;DHT22;31183;47.404;8.500;2023-03-14T08:43:27;10.30;93.10
45435;DHT22;31183;47.404;8.500;2023-03-14T08:45:58;10.40;93.00
45435;DHT22;31183;47.404;8.500;2023-03-14T08:48:25;10.60;92.90
45435;DHT22;31183;47.404;8.500;2023-03-14T08:50:51;10.60;92.30
45435;DHT22;31183;47.404;8.500;2023-03-14T08:53:18;10.70;92.50
45435;DHT22;31183;47.404;8.500;2023-03-14T08:55:45;10.80;92.30
45435;DHT22;31183;47.404;8.500;2023-03-14T08:58:11;10.90;92.00
45435;DHT22;31183;47.404;8.500;2023-03-14T09:00:38;10.90;91.90
45435;DHT22;31183;47.404;8.500;2023-03-14T09:03:05;10.90;91.90
45435;DHT22;31183;47.404;8.500;2023-03-14T09:05:35;11.00;91.80
45435;DHT22;31183;47.404;8.500;2023-03-14T09:08:01;10.90;91.80
45435;DHT22;31183;47.404;8.500;2023-03-14T09:10:28;10.80;91.90
45435;DHT22;31183;47.404;8.500;2023-03-14T09:12:55;10.70;92.10
45435;DHT22;31183;47.404;8.500;2023-03-14T09:15:21;10.60;92.20
45435;DHT22;31183;47.404;8.500;2023-03-14T09:17:48;10.60;92.40
45435;DHT22;31183;47.404;8.500;2023-03-14T09:20:15;10.60;92.60
45435;DHT22;31183;47.404;8.500;2023-03-14T09:22:41;10.60;92.50
45435;DHT22;31183;47.404;8.500;2023-03-14T09:25:08;10.70;92.50
45435;DHT22;31183;47.404;8.500;2023-03-14T09:27:36;10.90;92.10
45435;DHT22;31183;47.404;8.500;2023-03-14T09:30:03;11.10;91.70
45435;DHT22;31183;47.404;8.500;2023-03-14T09:32:30;11.10;91.50
45435;DHT22;31183;47.404;8.500;2023-03-14T09:34:58;11.10;91.70
45435;DHT22;31183;47.404;8.500;2023-03-14T09:37:24;11.10;92.20
45435;DHT22;31183;47.404;8.500;2023-03-14T09:39:51;11.10;91.80
45435;DHT22;31183;47.404;8.500;2023-03-14T09:42:22;11.30;91.50
45435;DHT22;31183;47.404;8.500;2023-03-14T09:45:03;11.50;90.90
45435;DHT22;31183;47.404;8.500;2023-03-14T09:47:33;11.40;91.20
45435;DHT22;31183;47.404;8.500;2023-03-14T09:50:00;11.20;91.50
45435;DHT22;31183;47.404;8.500;2023-03-14T09:52:33;11.20;91.70
45435;DHT22;31183;47.404;8.500;2023-03-14T09:55:10;11.30;91.80
45435;DHT22;31183;47.404;8.500;2023-03-14T09:57:38;11.30;91.80
45435;DHT22;31183;47.404;8.500;2023-03-14T10:00:20;11.30;92.20
45435;DHT22;31183;47.404;8.500;2023-03-14T10:02:50;11.10;92.80
45435;DHT22;31183;47.404;8.500;2023-03-14T10:05:19;11.00;93.70
45435;DHT22;31183;47.404;8.500;2023-03-14T10:07:46;10.90;93.90
45435;DHT22;31183;47.404;8.500;2023-03-14T10:10:22;10.90;94.00
45435;DHT22;31183;47.404;8.500;2023-03-14T10:15:36;10.60;93.70
45435;DHT22;31183;47.404;8.500;2023-03-14T10:18:05;10.50;93.90
45435;DHT22;31183;47.404;8.500;2023-03-14T10:20:44;10.30;94.30
45435;DHT22;31183;47.404;8.500;2023-03-14T10:25:43;10.00;95.70
45435;DHT22;31183;47.404;8.500;2023-03-14T10:30:49;9.90;96.80
45435;DHT22;31183;47.404;8.500;2023-03-14T10:33:22;9.90;97.10
45435;DHT22;31183;47.404;8.500;2023-03-14T10:35:55;9.90;97.30
45435;DHT22;31183;47.404;8.500;2023-03-14T10:38:25;10.10;97.20
45435;DHT22;31183;47.404;8.500;2023-03-14T10:40:53;10.30;96.90
45435;DHT22;31183;47.404;8.500;2023-03-14T10:43:27;10.40;96.10
45435;DHT22;31183;47.404;8.500;2023-03-14T10:46:00;10.40;95.90
45435;DHT22;31183;47.404;8.500;2023-03-14T10:48:32;10.30;96.10
45435;DHT22;31183;47.404;8.500;2023-03-14T10:51:02;10.20;96.70
45435;DHT22;31183;47.404;8.500;2023-03-14T10:54:20;10.10;97.30
45435;DHT22;31183;47.404;8.500;2023-03-14T10:56:22;9.90;97.60
45435;DHT22;31183;47.404;8.500;2023-03-14T10:58:51;9.80;98.10
45435;DHT22;31183;47.404;8.500;2023-03-14T11:01:41;9.80;98.80
45435;DHT22;31183;47.404;8.500;2023-03-14T11:10:18;9.40;99.90
45435;DHT22;31183;47.404;8.500;2023-03-14T11:18:44;9.20;99.90
45435;DHT22;31183;47.404;8.500;2023-03-14T11:24:24;9.00;99.90
45435;DHT22;31183;47.404;8.500;2023-03-14T11:27:03;8.90;99.90
45435;DHT22;31183;47.404;8.500;2023-03-14T11:29:36;8.80;99.90
45435;DHT22;31183;47.404;8.500;2023-03-14T11:32:13;8.80;99.90
45435;DHT22;31183;47.404;8.500;2023-03-14T11:34:49;8.70;99.90
45435;DHT22;31183;47.404;8.500;2023-03-14T11:37:34;8.60;99.90
45435;DHT22;31183;47.404;8.500;2023-03-14T11:42:44;8.50;99.90
45435;DHT22;31183;47.404;8.500;2023-03-14T11:45:26;8.40;99.90
45435;DHT22;31183;47.404;8.500;2023-03-14T11:48:20;8.40;99.90
45435;DHT22;31183;47.404;8.500;2023-03-14T11:50:52;8.40;99.90
45435;DHT22;31183;47.404;8.500;2023-03-14T11:53:40;8.40;99.90
45435;DHT22;31183;47.404;8.500;2023-03-14T11:56:23;8.40;99.90
45435;DHT22;31183;47.404;8.500;2023-03-14T11:58:55;8.50;99.90
45435;DHT22;31183;47.404;8.500;2023-03-14T12:01:28;8.40;99.90
45435;DHT22;31183;47.404;8.500;2023-03-14T12:04:31;8.40;99.90
45435;DHT22;31183;47.404;8.500;2023-03-14T12:07:05;8.50;99.90
45435;DHT22;31183;47.404;8.500;2023-03-14T12:09:35;8.40;99.90
45435;DHT22;31183;47.404;8.500;2023-03-14T12:12:04;8.30;99.90
45435;DHT22;31183;47.404;8.500;2023-03-14T12:14:36;8.30;99.90
45435;DHT22;31183;47.404;8.500;2023-03-14T12:19:39;8.50;99.90
45435;DHT22;31183;47.404;8.500;2023-03-14T12:24:47;8.50;99.90
45435;DHT22;31183;47.404;8.500;2023-03-14T12:30:28;8.60;99.90
45435;DHT22;31183;47.404;8.500;2023-03-14T12:38:23;8.50;99.90
45435;DHT22;31183;47.404;8.500;2023-03-14T12:43:46;8.50;99.90
45435;DHT22;31183;47.404;8.500;2023-03-14T12:46:28;8.60;99.90
45435;DHT22;31183;47.404;8.500;2023-03-14T12:59:36;8.50;98.90
45435;DHT22;31183;47.404;8.500;2023-03-14T13:04:53;8.50;99.10
45435;DHT22;31183;47.404;8.500;2023-03-14T13:12:43;8.30;99.60
45435;DHT22;31183;47.404;8.500;2023-03-14T13:15:34;8.30;99.50
45435;DHT22;31183;47.404;8.500;2023-03-14T13:18:33;8.40;99.20
45435;DHT22;31183;47.404;8.500;2023-03-14T13:23:32;8.80;98.50
45435;DHT22;31183;47.404;8.500;2023-03-14T13:26:00;8.90;98.10
45435;DHT22;31183;47.404;8.500;2023-03-14T13:28:29;9.00;97.80
45435;DHT22;31183;47.404;8.500;2023-03-14T13:31:01;9.10;97.20
45435;DHT22;31183;47.404;8.500;2023-03-14T13:33:28;9.10;96.80
45435;DHT22;31183;47.404;8.500;2023-03-14T13:36:00;9.30;96.60
45435;DHT22;31183;47.404;8.500;2023-03-14T13:38:31;9.50;96.40
45435;DHT22;31183;47.404;8.500;2023-03-14T13:40:59;9.60;96.00
45435;DHT22;31183;47.404;8.500;2023-03-14T13:43:46;9.50;95.60
45435;DHT22;31183;47.404;8.500;2023-03-14T13:46:16;9.40;96.20
45435;DHT22;31183;47.404;8.500;2023-03-14T13:48:52;9.50;96.10
45435;DHT22;31183;47.404;8.500;2023-03-14T13:51:20;9.50;96.00
45435;DHT22;31183;47.404;8.500;2023-03-14T13:53:51;9.60;95.60
45435;DHT22;31183;47.404;8.500;2023-03-14T13:56:24;9.60;95.30
45435;DHT22;31183;47.404;8.500;2023-03-14T13:58:52;9.60;94.80
45435;DHT22;31183;47.404;8.500;2023-03-14T14:03:56;9.60;94.50
45435;DHT22;31183;47.404;8.500;2023-03-14T14:06:29;9.70;94.00
45435;DHT22;31183;47.404;8.500;2023-03-14T14:09:02;9.70;93.30
45435;DHT22;31183;47.404;8.500;2023-03-14T14:14:49;9.60;91.90
45435;DHT22;31183;47.404;8.500;2023-03-14T14:17:21;9.70;92.60
45435;DHT22;31183;47.404;8.500;2023-03-14T14:19:51;9.70;92.20
45435;DHT22;31183;47.404;8.500;2023-03-14T14:22:18;9.60;92.50
45435;DHT22;31183;47.404;8.500;2023-03-14T14:24:46;9.40;92.20
45435;DHT22;31183;47.404;8.500;2023-03-14T14:27:23;9.30;92.70
45435;DHT22;31183;47.404;8.500;2023-03-14T14:30:02;9.20;93.70
45435;DHT22;31183;47.404;8.500;2023-03-14T14:32:39;9.10;94.80
45435;DHT22;31183;47.404;8.500;2023-03-14T14:35:08;9.20;95.70
45435;DHT22;31183;47.404;8.500;2023-03-14T14:37:43;9.40;95.30
45435;DHT22;31183;47.404;8.500;2023-03-14T14:40:18;9.50;95.20
45435;DHT22;31183;47.404;8.500;2023-03-14T14:42:45;9.70;94.20
45435;DHT22;31183;47.404;8.500;2023-03-14T14:45:20;9.90;94.00
45435;DHT22;31183;47.404;8.500;2023-03-14T14:47:52;10.00;93.30
45435;DHT22;31183;47.404;8.500;2023-03-14T14:55:52;10.10;91.10
45435;DHT22;31183;47.404;8.500;2023-03-14T14:58:34;10.00;91.10
45435;DHT22;31183;47.404;8.500;2023-03-14T15:01:12;9.90;90.10
45435;DHT22;31183;47.404;8.500;2023-03-14T15:03:43;9.90;90.30
45435;DHT22;31183;47.404;8.500;2023-03-14T15:06:12;9.90;89.60
45435;DHT22;31183;47.404;8.500;2023-03-14T15:08:39;9.90;87.60
45435;DHT22;31183;47.404;8.500;2023-03-14T15:11:06;9.90;86.20
45435;DHT22;31183;47.404;8.500;2023-03-14T15:13:35;9.90;86.20
45435;DHT22;31183;47.404;8.500;2023-03-14T15:16:01;10.00;84.60
45435;DHT22;31183;47.404;8.500;2023-03-14T15:18:29;10.00;83.60
45435;DHT22;31183;47.404;8.500;2023-03-14T15:20:56;10.00;83.50
45435;DHT22;31183;47.404;8.500;2023-03-14T15:23:23;10.00;83.20
45435;DHT22;31183;47.404;8.500;2023-03-14T15:25:50;10.00;83.70
45435;DHT22;31183;47.404;8.500;2023-03-14T15:28:27;10.00;83.60
45435;DHT22;31183;47.404;8.500;2023-03-14T15:30:56;10.00;83.40
45435;DHT22;31183;47.404;8.500;2023-03-14T15:33:24;10.00;83.20
45435;DHT22;31183;47.404;8.500;2023-03-14T15:35:52;9.80;83.30
45435;DHT22;31183;47.404;8.500;2023-03-14T15:38:21;9.80;84.10
45435;DHT22;31183;47.404;8.500;2023-03-14T15:40:50;9.80;84.60
45435;DHT22;31183;47.404;8.500;2023-03-14T15:43:16;9.70;85.20
45435;DHT22;31183;47.404;8.500;2023-03-14T15:45:44;9.60;85.70
45435;DHT22;31183;47.404;8.500;2023-03-14T15:48:15;9.50;85.70
45435;DHT22;31183;47.404;8.500;2023-03-14T15:50:42;9.40;85.50
45435;DHT22;31183;47.404;8.500;2023-03-14T15:53:10;9.30;88.10
45435;DHT22;31183;47.404;8.500;2023-03-14T15:55:36;9.10;90.20
45435;DHT22;31183;47.404;8.500;2023-03-14T15:58:03;9.00;90.90
45435;DHT22;31183;47.404;8.500;2023-03-14T16:00:30;8.80;91.70
45435;DHT22;31183;47.404;8.500;2023-03-14T16:02:58;8.70;92.50
45435;DHT22;31183;47.404;8.500;2023-03-14T16:05:24;8.70;93.30
45435;DHT22;31183;47.404;8.500;2023-03-14T16:07:51;8.70;93.60
45435;DHT22;31183;47.404;8.500;2023-03-14T16:10:17;8.70;94.10
45435;DHT22;31183;47.404;8.500;2023-03-14T16:12:44;8.70;94.20
45435;DHT22;31183;47.404;8.500;2023-03-14T16:15:10;8.60;94.30
45435;DHT22;31183;47.404;8.500;2023-03-14T16:17:37;8.60;94.50
45435;DHT22;31183;47.404;8.500;2023-03-14T16:20:06;8.60;94.60
45435;DHT22;31183;47.404;8.500;2023-03-14T16:22:34;8.50;94.90
45435;DHT22;31183;47.404;8.500;2023-03-14T16:25:03;8.50;94.90
45435;DHT22;31183;47.404;8.500;2023-03-14T16:27:31;8.50;95.50
45435;DHT22;31183;47.404;8.500;2023-03-14T16:29:58;8.50;95.70
45435;DHT22;31183;47.404;8.500;2023-03-14T16:32:26;8.60;95.70
45435;DHT22;31183;47.404;8.500;2023-03-14T16:34:53;8.70;95.50
45435;DHT22;31183;47.404;8.500;2023-03-14T16:37:19;8.60;95.30
45435;DHT22;31183;47.404;8.500;2023-03-14T16:39:48;8.50;95.00
45435;DHT22;31183;47.404;8.500;2023-03-14T16:42:35;8.50;95.40
45435;DHT22;31183;47.404;8.500;2023-03-14T16:45:01;8.40;95.50
45435;DHT22;31183;47.404;8.500;2023-03-14T16:47:28;8.40;95.70
45435;DHT22;31183;47.404;8.500;2023-03-14T16:49:56;8.30;95.70
45435;DHT22;31183;47.404;8.500;2023-03-14T16:52:24;8.30;95.60
45435;DHT22;31183;47.404;8.500;2023-03-14T16:54:50;8.20;95.50
45435;DHT22;31183;47.404;8.500;2023-03-14T16:57:17;8.20;95.90
45435;DHT22;31183;47.404;8.500;2023-03-14T16:59:43;8.20;96.10
45435;DHT22;31183;47.404;8.500;2023-03-14T17:02:10;8.10;96.60
45435;DHT22;31183;47.404;8.500;2023-03-14T17:04:39;8.10;96.80
45435;DHT22;31183;47.404;8.500;2023-03-14T17:07:07;8.10;96.90
45435;DHT22;31183;47.404;8.500;2023-03-14T17:09:34;8.10;96.80
45435;DHT22;31183;47.404;8.500;2023-03-14T17:12:00;8.10;96.70